createdAt,value
2019-02-17T00:00:58.735Z,6.90
2019-02-17T00:03:29.049Z,6.90
2019-02-17T00:05:59.265Z,7.00
2019-02-17T00:08:29.538Z,6.90
2019-02-17T00:10:59.820Z,6.90
2019-02-17T00:13:30.141Z,6.80
2019-02-17T00:16:00.457Z,6.80
2019-02-17T00:18:30.693Z,6.90
2019-02-17T00:21:00.975Z,7.00
2019-02-17T00:23:31.250Z,6.90
2019-02-17T00:26:01.552Z,6.90
2019-02-17T00:28:31.841Z,6.70
2019-02-17T00:31:02.044Z,6.70
2019-02-17T00:33:32.274Z,6.60
2019-02-17T00:36:02.560Z,6.80
2019-02-17T00:38:32.859Z,6.80
2019-02-17T00:41:03.183Z,6.60
2019-02-17T00:43:33.471Z,6.60
2019-02-17T00:46:03.731Z,6.60
2019-02-17T00:48:34.027Z,6.60
2019-02-17T00:51:04.328Z,6.60
2019-02-17T00:53:34.545Z,6.50
2019-02-17T00:56:04.829Z,6.50
2019-02-17T00:58:35.136Z,6.50
2019-02-17T01:01:05.370Z,6.60
2019-02-17T01:03:35.682Z,6.50
2019-02-17T01:06:06.049Z,6.40
2019-02-17T01:08:36.344Z,6.40
2019-02-17T01:11:06.569Z,6.40
2019-02-17T01:13:36.841Z,6.20
2019-02-17T01:16:07.113Z,6.50
2019-02-17T01:18:37.349Z,6.60
2019-02-17T01:21:07.652Z,6.40
2019-02-17T01:23:37.884Z,6.20
2019-02-17T01:26:08.225Z,6.10
2019-02-17T01:28:38.527Z,5.90
2019-02-17T01:31:08.804Z,6.00
2019-02-17T01:33:39.008Z,5.90
2019-02-17T01:36:09.287Z,6.20
2019-02-17T01:38:39.556Z,6.20
2019-02-17T01:41:09.825Z,6.20
2019-02-17T01:43:39.980Z,6.10
2019-02-17T01:46:10.196Z,6.10
2019-02-17T01:48:40.397Z,6.00
2019-02-17T01:51:10.610Z,6.10
2019-02-17T01:53:40.865Z,6.30
2019-02-17T01:56:11.189Z,6.50
2019-02-17T01:58:41.476Z,6.50
2019-02-17T02:01:11.787Z,6.60
2019-02-17T02:03:42.044Z,6.60
2019-02-17T02:06:12.337Z,6.50
2019-02-17T02:08:42.607Z,6.60
2019-02-17T02:11:12.914Z,6.60
2019-02-17T02:13:43.183Z,6.50
2019-02-17T02:16:13.390Z,6.20
2019-02-17T02:18:43.632Z,6.00
2019-02-17T02:21:13.956Z,6.00
2019-02-17T02:23:44.152Z,6.00
2019-02-17T02:26:14.364Z,6.00
2019-02-17T02:28:44.564Z,5.80
2019-02-17T02:31:14.763Z,5.80
2019-02-17T02:33:44.987Z,5.70
2019-02-17T02:36:15.434Z,5.70
2019-02-17T02:38:45.738Z,5.60
2019-02-17T02:41:16.042Z,5.70
2019-02-17T02:43:46.304Z,5.70
2019-02-17T02:46:16.569Z,5.70
2019-02-17T02:48:46.858Z,5.70
2019-02-17T02:51:17.065Z,5.80
2019-02-17T02:53:47.285Z,5.90
2019-02-17T02:56:17.522Z,5.50
2019-02-17T02:58:47.725Z,5.50
2019-02-17T03:01:17.949Z,5.50
2019-02-17T03:03:48.206Z,5.50
2019-02-17T03:06:35.792Z,5.50
2019-02-17T03:09:06.881Z,5.50
2019-02-17T03:11:37.185Z,5.50
2019-02-17T03:14:07.384Z,5.60
2019-02-17T03:16:37.651Z,5.40
2019-02-17T03:19:07.910Z,5.50
2019-02-17T03:21:38.216Z,5.50
2019-02-17T03:24:08.401Z,5.40
2019-02-17T03:26:38.689Z,5.40
2019-02-17T03:29:08.886Z,5.30
2019-02-17T03:31:39.185Z,5.30
2019-02-17T03:34:09.449Z,5.30
2019-02-17T03:36:39.668Z,5.30
2019-02-17T03:39:09.858Z,5.20
2019-02-17T03:41:40.145Z,5.20
2019-02-17T03:44:10.342Z,5.10
2019-02-17T03:46:40.637Z,5.10
2019-02-17T03:49:10.928Z,5.10
2019-02-17T03:51:41.166Z,5.20
2019-02-17T03:54:11.450Z,5.30
2019-02-17T03:56:41.677Z,5.30
2019-02-17T03:59:11.993Z,5.30
2019-02-17T04:01:42.226Z,5.20
2019-02-17T04:04:12.508Z,5.10
2019-02-17T04:06:45.810Z,5.00
2019-02-17T04:09:16.119Z,5.10
2019-02-17T04:11:46.381Z,4.90
2019-02-17T04:14:16.595Z,5.00
2019-02-17T04:16:46.785Z,4.80
2019-02-17T04:19:17.063Z,4.70
2019-02-17T04:21:47.251Z,4.90
2019-02-17T04:24:17.462Z,4.70
2019-02-17T04:26:47.730Z,4.80
2019-02-17T04:29:18.120Z,4.80
2019-02-17T04:31:48.361Z,4.90
2019-02-17T04:34:18.651Z,4.70
2019-02-17T04:36:48.848Z,4.80
2019-02-17T04:39:19.138Z,4.70
2019-02-17T04:41:49.327Z,4.80
2019-02-17T04:44:19.566Z,4.80
2019-02-17T04:46:49.753Z,4.80
2019-02-17T04:49:19.977Z,4.90
2019-02-17T04:51:50.238Z,4.70
2019-02-17T04:54:20.522Z,4.60
2019-02-17T04:56:50.814Z,4.60
2019-02-17T04:59:21.082Z,4.50
2019-02-17T05:01:54.080Z,4.40
2019-02-17T05:04:24.273Z,4.60
2019-02-17T05:06:54.575Z,4.70
2019-02-17T05:09:24.848Z,4.60
2019-02-17T05:11:55.086Z,4.50
2019-02-17T05:14:25.289Z,4.40
2019-02-17T05:16:55.638Z,4.40
2019-02-17T05:19:25.925Z,4.50
2019-02-17T05:21:56.218Z,4.50
2019-02-17T05:24:26.478Z,4.50
2019-02-17T05:26:56.712Z,4.60
2019-02-17T05:29:26.923Z,4.60
2019-02-17T05:31:57.221Z,4.50
2019-02-17T05:34:27.432Z,4.40
2019-02-17T05:36:57.733Z,4.40
2019-02-17T05:39:28.014Z,4.50
2019-02-17T05:41:58.237Z,4.50
2019-02-17T05:44:28.598Z,4.40
2019-02-17T05:46:58.819Z,4.40
2019-02-17T05:49:29.023Z,4.40
2019-02-17T05:51:59.282Z,4.20
2019-02-17T05:54:29.473Z,4.40
2019-02-17T05:56:59.741Z,4.50
2019-02-17T05:59:29.995Z,4.60
2019-02-17T06:02:00.257Z,4.60
2019-02-17T06:04:30.561Z,4.60
2019-02-17T06:07:00.749Z,4.60
2019-02-17T06:09:31.040Z,4.50
2019-02-17T06:12:01.331Z,4.50
2019-02-17T06:14:31.619Z,4.50
2019-02-17T06:17:01.819Z,4.60
2019-02-17T06:19:32.027Z,4.60
2019-02-17T06:22:02.294Z,4.50
2019-02-17T06:24:32.505Z,4.70
2019-02-17T06:27:02.708Z,4.80
2019-02-17T06:29:32.937Z,4.80
2019-02-17T06:32:03.185Z,4.70
2019-02-17T06:34:33.425Z,4.70
2019-02-17T06:37:03.623Z,4.70
2019-02-17T06:39:33.982Z,4.70
2019-02-17T06:42:04.232Z,4.70
2019-02-17T06:44:34.516Z,4.60
2019-02-17T06:47:06.454Z,4.70
2019-02-17T06:49:36.645Z,4.70
2019-02-17T06:52:06.925Z,4.80
2019-02-17T06:54:37.196Z,4.70
2019-02-17T06:57:13.022Z,4.80
2019-02-17T06:59:43.324Z,4.90
2019-02-17T07:02:13.622Z,4.90
2019-02-17T07:05:17.688Z,4.90
2019-02-17T07:07:47.975Z,4.70
2019-02-17T07:10:18.172Z,4.90
2019-02-17T07:12:48.364Z,5.00
2019-02-17T07:15:18.642Z,5.00
2019-02-17T07:17:48.937Z,5.10
2019-02-17T07:20:19.140Z,5.00
2019-02-17T07:22:49.439Z,5.10
2019-02-17T07:25:29.337Z,5.10
2019-02-17T07:27:51.518Z,5.00
2019-02-17T07:30:21.825Z,5.00
2019-02-17T07:32:52.096Z,5.10
2019-02-17T07:35:22.317Z,5.20
2019-02-17T07:37:52.537Z,5.30
2019-02-17T07:40:22.730Z,5.20
2019-02-17T07:42:53.025Z,5.20
2019-02-17T07:45:23.284Z,5.20
2019-02-17T07:47:53.509Z,5.10
2019-02-17T07:50:23.784Z,4.90
2019-02-17T07:52:53.982Z,5.00
2019-02-17T07:55:24.405Z,4.90
2019-02-17T07:57:54.697Z,4.90
2019-02-17T08:00:26.061Z,4.90
2019-02-17T08:02:56.403Z,4.70
2019-02-17T08:05:26.728Z,4.70
2019-02-17T08:07:57.030Z,4.70
2019-02-17T08:10:27.276Z,4.80
2019-02-17T08:12:57.500Z,5.20
2019-02-17T08:15:27.825Z,5.40
2019-02-17T08:17:58.677Z,5.60
2019-02-17T08:20:28.910Z,5.60
2019-02-17T08:22:59.199Z,5.70
2019-02-17T08:25:29.411Z,5.70
2019-02-17T08:27:59.740Z,5.80
2019-02-17T08:30:30.005Z,5.80
2019-02-17T08:33:00.315Z,5.90
2019-02-17T08:35:30.629Z,5.90
2019-02-17T08:38:03.314Z,6.00
2019-02-17T08:40:32.860Z,6.00
2019-02-17T08:43:03.137Z,5.90
2019-02-17T08:45:33.352Z,6.00
2019-02-17T08:48:03.689Z,5.90
2019-02-17T08:50:34.026Z,5.80
2019-02-17T08:53:04.446Z,5.80
2019-02-17T08:55:34.699Z,6.00
2019-02-17T08:58:05.103Z,6.00
2019-02-17T09:00:35.455Z,6.00
2019-02-17T09:03:05.770Z,6.20
2019-02-17T09:05:43.842Z,6.40
2019-02-17T09:08:08.109Z,6.50
2019-02-17T09:10:39.473Z,6.60
2019-02-17T09:13:09.771Z,6.70
2019-02-17T09:15:40.167Z,6.80
2019-02-17T09:18:10.510Z,6.80
2019-02-17T09:20:40.815Z,6.90
2019-02-17T09:23:11.121Z,6.90
2019-02-17T09:25:41.385Z,7.00
2019-02-17T09:28:11.659Z,7.00
2019-02-17T09:30:41.889Z,7.10
2019-02-17T09:33:12.209Z,7.10
2019-02-17T09:35:42.564Z,7.20
2019-02-17T09:38:12.845Z,7.20
2019-02-17T09:40:45.233Z,7.00
2019-02-17T09:43:18.313Z,7.20
2019-02-17T09:45:48.567Z,7.40
2019-02-17T09:48:18.875Z,7.40
2019-02-17T09:50:49.144Z,7.60
2019-02-17T09:53:19.461Z,7.70
2019-02-17T09:55:49.777Z,7.90
2019-02-17T09:58:20.091Z,8.00
2019-02-17T10:00:50.419Z,8.20
2019-02-17T10:03:20.917Z,8.20
2019-02-17T10:05:51.234Z,8.40
2019-02-17T10:08:21.513Z,8.50
2019-02-17T10:10:51.836Z,8.60
2019-02-17T10:13:22.124Z,8.80
2019-02-17T10:15:52.460Z,8.90
2019-02-17T10:18:22.747Z,9.00
2019-02-17T10:20:53.022Z,9.00
2019-02-17T10:23:23.226Z,9.10
2019-02-17T10:25:53.521Z,9.20
2019-02-17T10:28:23.785Z,9.40
2019-02-17T10:30:54.077Z,9.50
2019-02-17T10:33:24.413Z,9.60
2019-02-17T10:35:54.733Z,9.70
2019-02-17T10:38:25.061Z,9.80
2019-02-17T10:40:55.363Z,10.00
2019-02-17T10:43:25.696Z,10.10
2019-02-17T10:45:55.937Z,10.20
2019-02-17T10:48:26.237Z,10.30
2019-02-17T10:50:56.580Z,10.40
2019-02-17T10:53:26.885Z,10.50
2019-02-17T10:55:57.076Z,10.60
2019-02-17T10:58:27.281Z,10.70
2019-02-17T11:00:57.521Z,10.80
2019-02-17T11:03:27.762Z,10.80
2019-02-17T11:05:58.097Z,10.90
2019-02-17T11:08:28.333Z,11.00
2019-02-17T11:10:58.632Z,11.10
2019-02-17T11:13:28.943Z,11.20
2019-02-17T11:15:59.253Z,11.30
2019-02-17T11:18:32.959Z,11.40
2019-02-17T11:21:03.329Z,11.50
2019-02-17T11:23:33.709Z,11.60
2019-02-17T11:26:03.918Z,11.80
2019-02-17T11:28:34.221Z,11.90
2019-02-17T11:31:09.276Z,12.00
2019-02-17T11:33:39.535Z,12.20
2019-02-17T11:36:12.885Z,12.30
2019-02-17T11:38:43.227Z,12.40
2019-02-17T11:41:13.590Z,12.50
2019-02-17T11:43:43.906Z,12.60
2019-02-17T11:46:14.236Z,12.60
2019-02-17T11:48:44.607Z,12.80
2019-02-17T11:51:14.961Z,13.00
2019-02-17T11:53:45.301Z,13.10
2019-02-17T11:56:15.713Z,13.20
2019-02-17T11:58:47.010Z,13.30
2019-02-17T12:01:17.357Z,13.40
2019-02-17T12:03:47.646Z,13.50
2019-02-17T12:06:28.243Z,13.60
2019-02-17T12:08:58.500Z,13.60
2019-02-17T12:11:28.842Z,13.70
2019-02-17T12:13:59.193Z,13.90
2019-02-17T12:16:36.698Z,14.00
2019-02-17T12:19:01.580Z,14.00
2019-02-17T12:21:46.045Z,14.20
2019-02-17T12:24:35.265Z,14.30
2019-02-17T12:27:23.170Z,14.40
2019-02-17T12:30:03.962Z,14.50
2019-02-17T12:32:34.261Z,14.60
2019-02-17T12:35:04.539Z,14.70
2019-02-17T12:37:34.859Z,14.90
2019-02-17T12:40:06.802Z,15.00
2019-02-17T12:42:37.161Z,15.00
2019-02-17T12:45:10.933Z,15.10
2019-02-17T12:47:41.176Z,15.20
2019-02-17T12:50:12.401Z,15.20
2019-02-17T12:52:46.971Z,15.30
2019-02-17T12:55:14.605Z,15.30
2019-02-17T12:57:44.924Z,15.40
2019-02-17T13:00:18.781Z,15.70
2019-02-17T13:02:49.098Z,15.70
2019-02-17T13:05:19.431Z,15.80
2019-02-17T13:07:49.860Z,15.90
2019-02-17T13:10:20.160Z,15.90
2019-02-17T13:12:50.433Z,16.00
2019-02-17T13:15:20.733Z,16.00
2019-02-17T13:17:52.996Z,16.00
2019-02-17T13:20:23.028Z,16.10
2019-02-17T13:22:53.366Z,16.10
2019-02-17T13:25:23.664Z,16.10
2019-02-17T13:27:53.867Z,16.00
2019-02-17T13:30:24.166Z,16.10
2019-02-17T13:32:54.489Z,16.30
2019-02-17T13:35:24.712Z,16.30
2019-02-17T13:37:55.025Z,16.50
2019-02-17T13:40:25.334Z,16.50
2019-02-17T13:42:55.676Z,16.50
2019-02-17T13:45:26.037Z,16.50
2019-02-17T13:47:56.276Z,16.60
2019-02-17T13:50:26.600Z,16.70
2019-02-17T13:52:59.944Z,16.70
2019-02-17T13:55:30.316Z,16.80
2019-02-17T13:58:00.620Z,16.80
2019-02-17T14:00:30.947Z,16.90
2019-02-17T14:03:01.145Z,16.90
2019-02-17T14:05:31.471Z,16.90
2019-02-17T14:08:01.740Z,16.70
2019-02-17T14:10:32.004Z,16.80
2019-02-17T14:13:02.316Z,16.70
2019-02-17T14:15:32.592Z,16.60
2019-02-17T14:18:02.844Z,16.50
2019-02-17T14:20:33.140Z,16.50
2019-02-17T14:23:03.459Z,16.40
2019-02-17T14:25:33.705Z,16.40
2019-02-17T14:28:04.066Z,16.40
2019-02-17T14:30:34.476Z,16.30
2019-02-17T14:33:04.865Z,16.30
2019-02-17T14:35:35.167Z,16.30
2019-02-17T14:38:05.506Z,16.30
2019-02-17T14:40:35.818Z,16.30
2019-02-17T14:43:06.102Z,16.20
2019-02-17T14:45:36.336Z,16.20
2019-02-17T14:48:06.528Z,16.10
2019-02-17T14:50:36.766Z,16.10
2019-02-17T14:53:07.076Z,16.10
2019-02-17T14:55:37.401Z,16.10
2019-02-17T14:58:07.676Z,16.00
2019-02-17T15:00:37.961Z,16.00
2019-02-17T15:03:08.246Z,16.00
2019-02-17T15:05:38.579Z,16.00
2019-02-17T15:08:08.865Z,15.90
2019-02-17T15:10:39.197Z,15.90
2019-02-17T15:13:09.446Z,15.90
2019-02-17T15:15:39.633Z,15.80
2019-02-17T15:18:09.969Z,15.80
2019-02-17T15:20:40.213Z,15.70
2019-02-17T15:23:10.421Z,15.70
2019-02-17T15:25:40.685Z,15.70
2019-02-17T15:28:11.018Z,15.60
2019-02-17T15:30:41.275Z,15.60
2019-02-17T15:33:11.568Z,15.60
2019-02-17T15:35:41.869Z,15.50
2019-02-17T15:38:12.171Z,15.50
2019-02-17T15:40:42.404Z,15.40
2019-02-17T15:43:12.774Z,15.30
2019-02-17T15:45:43.073Z,15.30
2019-02-17T15:48:13.376Z,15.20
2019-02-17T15:50:43.701Z,15.10
2019-02-17T15:53:13.924Z,15.00
2019-02-17T15:55:44.146Z,15.00
2019-02-17T15:58:14.456Z,14.90
2019-02-17T16:00:44.708Z,14.70
2019-02-17T16:03:15.012Z,14.60
2019-02-17T16:05:48.169Z,14.60
2019-02-17T16:08:18.443Z,14.60
2019-02-17T16:10:48.688Z,14.50
2019-02-17T16:13:20.479Z,14.40
2019-02-17T16:15:50.760Z,14.30
2019-02-17T16:18:21.099Z,14.20
2019-02-17T16:20:51.396Z,14.10
2019-02-17T16:23:21.625Z,14.10
2019-02-17T16:25:51.948Z,14.00
2019-02-17T16:28:22.235Z,14.00
2019-02-17T16:30:52.484Z,13.90
2019-02-17T16:33:22.706Z,13.80
2019-02-17T16:35:52.928Z,13.80
2019-02-17T16:38:23.242Z,13.60
2019-02-17T16:40:53.572Z,13.50
2019-02-17T16:43:23.988Z,13.40
2019-02-17T16:45:54.310Z,13.30
2019-02-17T16:48:24.599Z,13.20
2019-02-17T16:50:54.917Z,13.10
2019-02-17T16:53:25.245Z,13.10
2019-02-17T16:55:55.752Z,13.10
2019-02-17T16:58:26.001Z,13.00
2019-02-17T17:00:56.232Z,12.90
2019-02-17T17:03:26.558Z,12.80
2019-02-17T17:05:56.905Z,12.70
2019-02-17T17:08:27.262Z,12.70
2019-02-17T17:10:57.501Z,12.60
2019-02-17T17:13:27.801Z,12.60
2019-02-17T17:15:58.075Z,12.50
2019-02-17T17:18:28.396Z,12.40
2019-02-17T17:20:58.680Z,12.30
2019-02-17T17:23:28.971Z,12.20
2019-02-17T17:25:59.255Z,12.10
2019-02-17T17:28:29.538Z,12.00
2019-02-17T17:30:59.797Z,11.90
2019-02-17T17:33:30.114Z,11.80
2019-02-17T17:36:00.432Z,11.80
2019-02-17T17:38:30.703Z,11.70
2019-02-17T17:41:01.025Z,11.70
2019-02-17T17:43:31.476Z,11.70
2019-02-17T17:46:01.780Z,11.70
2019-02-17T17:48:32.123Z,11.70
2019-02-17T17:51:02.450Z,11.70
2019-02-17T17:53:32.820Z,11.70
2019-02-17T17:56:03.175Z,11.70
2019-02-17T17:58:33.496Z,11.70
2019-02-17T18:01:03.890Z,11.70
2019-02-17T18:03:34.244Z,11.70
2019-02-17T18:06:04.648Z,11.60
2019-02-17T18:08:34.901Z,11.50
2019-02-17T18:11:06.294Z,11.50
2019-02-17T18:13:36.626Z,11.50
2019-02-17T18:16:06.945Z,11.40
2019-02-17T18:18:37.286Z,11.40
2019-02-17T18:21:07.596Z,11.40
2019-02-17T18:23:37.932Z,11.30
2019-02-17T18:26:08.136Z,11.30
2019-02-17T18:28:38.478Z,11.20
2019-02-17T18:31:08.741Z,11.20
2019-02-17T18:33:38.954Z,11.20
2019-02-17T18:36:09.212Z,11.10
2019-02-17T18:38:39.556Z,11.10
2019-02-17T18:41:09.810Z,11.20
2019-02-17T18:43:40.262Z,11.10
2019-02-17T18:46:10.595Z,11.00
2019-02-17T18:48:40.915Z,11.00
2019-02-17T18:51:11.181Z,10.90
2019-02-17T18:53:41.411Z,10.90
2019-02-17T18:56:11.618Z,10.90
2019-02-17T18:58:41.970Z,10.90
2019-02-17T19:01:12.308Z,10.80
2019-02-17T19:03:42.608Z,10.80
2019-02-17T19:06:12.952Z,10.80
2019-02-17T19:08:43.213Z,10.80
2019-02-17T19:11:13.532Z,10.80
2019-02-17T19:13:43.774Z,10.80
2019-02-17T19:16:14.026Z,10.70
2019-02-17T19:18:44.447Z,10.70
2019-02-17T19:21:14.853Z,10.70
2019-02-17T19:23:45.238Z,10.50
2019-02-17T19:26:15.499Z,10.50
2019-02-17T19:28:45.782Z,10.30
2019-02-17T19:31:16.138Z,10.30
2019-02-17T19:33:46.409Z,10.20
2019-02-17T19:36:16.774Z,10.00
2019-02-17T19:38:47.114Z,10.00
2019-02-17T19:41:17.354Z,10.00
2019-02-17T19:43:47.630Z,9.90
2019-02-17T19:46:17.974Z,9.90
2019-02-17T19:48:48.290Z,9.80
2019-02-17T19:51:18.664Z,9.80
2019-02-17T19:53:48.916Z,9.80
2019-02-17T19:56:19.309Z,9.80
2019-02-17T19:58:49.558Z,9.80
2019-02-17T20:01:19.820Z,9.60
2019-02-17T20:04:04.296Z,9.50
2019-02-17T20:06:34.833Z,9.50
2019-02-17T20:09:10.268Z,9.50
2019-02-17T20:11:40.591Z,9.50
2019-02-17T20:14:10.923Z,9.40
2019-02-17T20:16:41.309Z,9.40
2019-02-17T20:19:11.619Z,9.20
2019-02-17T20:21:44.206Z,9.30
2019-02-17T20:24:14.550Z,9.30
2019-02-17T20:26:44.862Z,9.30
2019-02-17T20:29:15.079Z,9.30
2019-02-17T20:31:45.384Z,9.20
2019-02-17T20:34:15.690Z,9.30
2019-02-17T20:36:46.029Z,9.30
2019-02-17T20:39:16.361Z,9.20
2019-02-17T20:41:46.683Z,9.30
2019-02-17T20:44:16.984Z,9.20
2019-02-17T20:46:47.306Z,9.10
2019-02-17T20:49:17.603Z,9.00
2019-02-17T20:51:47.881Z,8.90
2019-02-17T20:54:18.279Z,9.00
2019-02-17T20:56:48.564Z,9.10
2019-02-17T20:59:18.805Z,9.00
2019-02-17T21:01:49.076Z,9.00
2019-02-17T21:04:19.401Z,9.00
2019-02-17T21:06:49.728Z,9.10
2019-02-17T21:09:20.032Z,9.00
2019-02-17T21:11:50.317Z,9.00
2019-02-17T21:14:20.616Z,9.10
2019-02-17T21:16:50.964Z,9.00
2019-02-17T21:19:21.270Z,9.10
2019-02-17T21:21:51.578Z,9.00
2019-02-17T21:24:21.921Z,9.10
2019-02-17T21:26:54.777Z,9.00
2019-02-17T21:29:25.191Z,8.90
2019-02-17T21:31:55.557Z,8.70
2019-02-17T21:34:37.753Z,8.80
2019-02-17T21:37:08.101Z,8.80
2019-02-17T21:39:38.500Z,8.90
2019-02-17T21:42:08.926Z,8.70
2019-02-17T21:44:39.242Z,8.70
2019-02-17T21:47:11.633Z,8.80
2019-02-17T21:49:41.953Z,8.70
2019-02-17T21:52:12.331Z,8.70
2019-02-17T21:54:42.637Z,8.60
2019-02-17T21:57:13.001Z,8.60
2019-02-17T21:59:43.533Z,8.60
2019-02-17T22:02:13.947Z,8.50
2019-02-17T22:04:44.330Z,8.40
2019-02-17T22:07:14.611Z,8.30
2019-02-17T22:09:44.888Z,8.50
2019-02-17T22:12:15.199Z,8.20
2019-02-17T22:14:45.565Z,8.20
2019-02-17T22:17:15.902Z,8.30
2019-02-17T22:19:46.168Z,8.20
2019-02-17T22:22:16.500Z,8.10
2019-02-17T22:24:46.838Z,8.20
2019-02-17T22:27:17.038Z,8.10
2019-02-17T22:29:47.333Z,8.10
2019-02-17T22:32:17.661Z,8.10
2019-02-17T22:34:47.949Z,8.10
2019-02-17T22:37:18.217Z,8.20
2019-02-17T22:39:48.520Z,8.10
2019-02-17T22:42:18.772Z,8.00
2019-02-17T22:44:51.457Z,8.00
2019-02-17T22:47:21.758Z,8.10
2019-02-17T22:49:51.979Z,8.00
2019-02-17T22:52:22.280Z,8.10
2019-02-17T22:54:52.527Z,8.20
2019-02-17T22:57:22.836Z,8.30
2019-02-17T22:59:53.152Z,8.20
2019-02-17T23:02:24.240Z,8.30
2019-02-17T23:04:54.577Z,8.30
2019-02-17T23:07:24.809Z,8.20
2019-02-17T23:09:55.069Z,8.20
2019-02-17T23:12:25.469Z,8.10
2019-02-17T23:14:55.740Z,8.10
2019-02-17T23:17:26.064Z,7.90
2019-02-17T23:19:56.267Z,8.00
2019-02-17T23:22:26.482Z,8.00
2019-02-17T23:24:56.842Z,8.10
2019-02-17T23:27:27.187Z,8.10
2019-02-17T23:29:57.484Z,8.10
2019-02-17T23:32:27.796Z,7.90
2019-02-17T23:34:58.108Z,7.70
2019-02-17T23:37:28.369Z,7.70
2019-02-17T23:39:58.684Z,7.50
2019-02-17T23:42:28.942Z,7.40
2019-02-17T23:44:59.261Z,7.30
2019-02-17T23:47:29.529Z,7.30
2019-02-17T23:49:59.813Z,7.40
2019-02-17T23:52:30.113Z,7.50
2019-02-17T23:55:00.485Z,7.30
2019-02-17T23:57:30.891Z,7.30
